createdAt,value
2018-12-10T00:00:28.899Z,7.5
2018-12-10T00:01:28.915Z,7.52
2018-12-10T00:02:28.931Z,7.53
2018-12-10T00:03:28.945Z,7.46
2018-12-10T00:04:28.960Z,7.52
2018-12-10T00:05:28.979Z,7.52
2018-12-10T00:06:28.995Z,7.49
2018-12-10T00:07:29.012Z,7.52
2018-12-10T00:08:29.025Z,7.49
2018-12-10T00:09:29.046Z,7.52
2018-12-10T00:10:29.059Z,7.52
2018-12-10T00:11:29.137Z,7.39
2018-12-10T00:12:29.140Z,7.45
2018-12-10T00:13:43.769Z,7.43
2018-12-10T00:14:29.122Z,7.43
2018-12-10T00:15:29.142Z,7.49
2018-12-10T00:16:29.155Z,7.53
2018-12-10T00:17:29.171Z,7.48
2018-12-10T00:18:43.856Z,7.48
2018-12-10T00:19:29.203Z,7.5
2018-12-10T00:21:29.235Z,7.49
2018-12-10T00:22:29.254Z,7.45
2018-12-10T00:23:29.268Z,7.46
2018-12-10T00:24:29.283Z,7.42
2018-12-10T00:25:29.301Z,7.48
2018-12-10T00:26:29.314Z,7.48
2018-12-10T00:27:29.338Z,7.46
2018-12-10T00:28:29.350Z,7.49
2018-12-10T00:29:29.367Z,7.35
2018-12-10T00:30:29.380Z,7.34
2018-12-10T00:31:29.151Z,7.32
2018-12-10T00:32:29.410Z,7.37
2018-12-10T00:33:29.435Z,7.39
2018-12-10T00:34:29.451Z,7.3
2018-12-10T00:35:29.461Z,7.42
2018-12-10T00:36:44.189Z,7.49
2018-12-10T00:37:29.488Z,7.48
2018-12-10T00:38:29.508Z,7.35
2018-12-10T00:39:29.522Z,7.34
2018-12-10T00:40:44.202Z,7.25
2018-12-10T00:41:29.601Z,7.25
2018-12-10T00:42:29.622Z,7.27
2018-12-10T00:43:29.589Z,7.25
2018-12-10T00:44:29.605Z,7.21
2018-12-10T00:45:44.281Z,7.17
2018-12-10T00:46:29.632Z,7.15
2018-12-10T00:47:29.700Z,7.09
2018-12-10T00:48:29.663Z,7.15
2018-12-10T00:49:29.682Z,7.09
2018-12-10T00:50:29.700Z,6.92
2018-12-10T00:51:29.714Z,7.06
2018-12-10T00:52:29.478Z,6.99
2018-12-10T00:53:29.795Z,7.12
2018-12-10T00:54:29.763Z,7.07
2018-12-10T00:55:29.774Z,7.13
2018-12-10T00:56:29.794Z,7.1
2018-12-10T00:57:29.806Z,7.13
2018-12-10T00:58:29.822Z,7.28
2018-12-10T00:59:44.500Z,7.23
2018-12-10T01:00:29.853Z,7.3
2018-12-10T01:01:44.533Z,7.25
2018-12-10T01:02:29.934Z,7.23
2018-12-10T01:03:29.907Z,7.24
2018-12-10T01:04:29.924Z,7.24
2018-12-10T01:05:29.944Z,7.23
2018-12-10T01:06:29.993Z,7.25
2018-12-10T01:07:30.019Z,7.27
2018-12-10T01:08:29.987Z,7.25
2018-12-10T01:09:30.013Z,7.39
2018-12-10T01:10:30.017Z,7.27
2018-12-10T01:12:30.050Z,7.35
2018-12-10T01:13:30.138Z,7.25
2018-12-10T01:14:30.100Z,7.24
2018-12-10T01:15:30.099Z,7.25
2018-12-10T01:16:30.115Z,7.16
2018-12-10T01:17:44.586Z,7.15
2018-12-10T01:18:30.150Z,7.2
2018-12-10T01:20:30.183Z,7.23
2018-12-10T01:21:30.189Z,7.24
2018-12-10T01:22:30.201Z,7.17
2018-12-10T01:23:30.224Z,7.21
2018-12-10T01:24:30.286Z,7.05
2018-12-10T01:25:30.251Z,6.95
2018-12-10T01:26:30.271Z,6.94
2018-12-10T01:27:30.283Z,7.06
2018-12-10T01:28:30.303Z,7.1
2018-12-10T01:29:30.323Z,7.15
2018-12-10T01:30:30.337Z,7.15
2018-12-10T01:31:30.348Z,7.1
2018-12-10T01:32:30.377Z,7.13
2018-12-10T01:33:45.041Z,6.99
2018-12-10T01:34:30.396Z,7.03
2018-12-10T01:35:30.460Z,6.94
2018-12-10T01:36:30.426Z,6.95
2018-12-10T01:37:30.440Z,7.06
2018-12-10T01:38:30.457Z,6.95
2018-12-10T01:40:30.488Z,6.97
2018-12-10T01:42:30.532Z,6.95
2018-12-10T01:43:30.537Z,6.98
2018-12-10T01:44:45.214Z,6.89
2018-12-10T01:45:30.568Z,6.89
2018-12-10T01:46:30.599Z,6.98
2018-12-10T01:47:30.651Z,6.91
2018-12-10T01:48:45.379Z,6.84
2018-12-10T01:49:30.639Z,6.77
2018-12-10T01:50:45.316Z,6.71
2018-12-10T01:51:30.664Z,6.77
2018-12-10T01:52:30.678Z,6.69
2018-12-10T01:53:30.695Z,6.69
2018-12-10T01:54:30.709Z,6.7
2018-12-10T01:55:30.728Z,6.74
2018-12-10T01:57:30.762Z,6.64
2018-12-10T01:58:30.775Z,6.64
2018-12-10T01:59:30.887Z,6.56
2018-12-10T02:00:30.804Z,6.58
2018-12-10T02:01:30.821Z,6.64
2018-12-10T02:02:30.833Z,6.62
2018-12-10T02:03:30.900Z,6.56
2018-12-10T02:04:30.870Z,6.51
2018-12-10T02:05:30.931Z,6.51
2018-12-10T02:06:30.900Z,6.51
2018-12-10T02:07:30.913Z,6.36
2018-12-10T02:08:30.931Z,6.41
2018-12-10T02:09:30.943Z,6.43
2018-12-10T02:10:30.963Z,6.49
2018-12-10T02:11:30.976Z,6.48
2018-12-10T02:12:30.995Z,6.51
2018-12-10T02:14:45.687Z,6.58
2018-12-10T02:15:31.040Z,6.66
2018-12-10T02:16:31.057Z,6.73
2018-12-10T02:17:31.071Z,6.73
2018-12-10T02:18:31.091Z,6.76
2018-12-10T02:19:31.099Z,6.69
2018-12-10T02:20:45.777Z,6.71
2018-12-10T02:21:31.134Z,6.77
2018-12-10T02:22:31.197Z,6.76
2018-12-10T02:23:31.212Z,6.8
2018-12-10T02:24:31.183Z,6.77
2018-12-10T02:25:31.194Z,6.8
2018-12-10T02:26:31.218Z,6.76
2018-12-10T02:27:31.223Z,6.76
2018-12-10T02:28:31.292Z,6.84
2018-12-10T02:29:31.260Z,6.8
2018-12-10T02:30:45.937Z,6.77
2018-12-10T02:31:31.050Z,6.87
2018-12-10T02:32:31.303Z,6.8
2018-12-10T02:33:31.319Z,6.88
2018-12-10T02:34:31.342Z,6.76
2018-12-10T02:35:31.355Z,6.91
2018-12-10T02:36:46.027Z,6.77
2018-12-10T02:38:31.400Z,6.91
2018-12-10T02:39:31.422Z,6.8
2018-12-10T02:40:31.435Z,6.8
2018-12-10T02:41:31.455Z,6.77
2018-12-10T02:42:31.524Z,6.85
2018-12-10T02:43:31.482Z,6.84
2018-12-10T02:44:31.493Z,6.74
2018-12-10T02:46:31.577Z,6.85
2018-12-10T02:47:31.613Z,6.85
2018-12-10T02:49:31.621Z,6.77
2018-12-10T02:50:31.591Z,6.84
2018-12-10T02:51:31.599Z,6.92
2018-12-10T02:52:46.283Z,6.95
2018-12-10T02:55:31.669Z,6.92
2018-12-10T02:56:31.689Z,6.91
2018-12-10T02:57:31.706Z,6.97
2018-12-10T02:58:31.822Z,6.77
2018-12-10T02:59:31.735Z,6.85
2018-12-10T03:00:31.750Z,6.76
2018-12-10T03:01:31.763Z,6.81
2018-12-10T03:02:31.779Z,6.74
2018-12-10T03:03:31.788Z,6.71
2018-12-10T03:04:31.806Z,6.85
2018-12-10T03:05:31.832Z,6.8
2018-12-10T03:06:31.840Z,6.89
2018-12-10T03:07:31.897Z,6.84
2018-12-10T03:09:31.892Z,6.85
2018-12-10T03:10:31.901Z,6.79
2018-12-10T03:11:31.915Z,6.74
2018-12-10T03:13:31.948Z,6.74
2018-12-10T03:14:31.964Z,6.71
2018-12-10T03:15:31.995Z,6.69
2018-12-10T03:16:31.995Z,6.74
2018-12-10T03:17:32.013Z,6.7
2018-12-10T03:18:32.156Z,6.67
2018-12-10T03:19:32.072Z,6.79
2018-12-10T03:20:32.059Z,6.73
2018-12-10T03:21:32.083Z,6.71
2018-12-10T03:22:32.107Z,6.74
2018-12-10T03:23:46.766Z,6.73
2018-12-10T03:24:32.146Z,6.71
2018-12-10T03:25:32.135Z,6.73
2018-12-10T03:26:32.254Z,6.71
2018-12-10T03:27:32.220Z,6.69
2018-12-10T03:28:32.193Z,6.7
2018-12-10T03:29:32.203Z,6.71
2018-12-10T03:30:32.230Z,6.8
2018-12-10T03:31:32.257Z,6.74
2018-12-10T03:32:32.278Z,6.73
2018-12-10T03:34:32.288Z,6.77
2018-12-10T03:35:32.395Z,6.74
2018-12-10T03:36:32.310Z,6.79
2018-12-10T03:37:32.322Z,6.7
2018-12-10T03:38:32.337Z,6.69
2018-12-10T03:39:32.353Z,6.77
2018-12-10T03:40:32.368Z,6.69
2018-12-10T03:41:32.385Z,6.71
2018-12-10T03:44:32.502Z,6.7
2018-12-10T03:45:32.449Z,6.67
2018-12-10T03:47:32.610Z,6.85
2018-12-10T03:48:32.494Z,6.79
2018-12-10T03:49:32.513Z,6.8
2018-12-10T03:50:47.297Z,6.79
2018-12-10T03:51:32.535Z,6.81
2018-12-10T03:52:32.557Z,6.79
2018-12-10T03:53:32.581Z,6.71
2018-12-10T03:54:32.349Z,6.81
2018-12-10T03:55:47.263Z,6.81
2018-12-10T03:56:32.629Z,6.79
2018-12-10T03:57:32.710Z,6.71
2018-12-10T03:58:32.646Z,6.73
2018-12-10T03:59:32.665Z,6.71
2018-12-10T04:00:32.796Z,6.7
2018-12-10T04:01:32.701Z,6.71
2018-12-10T04:03:32.729Z,6.76
2018-12-10T04:04:32.746Z,6.66
2018-12-10T04:05:47.423Z,6.71
2018-12-10T04:06:47.435Z,6.85
2018-12-10T04:07:32.804Z,6.74
2018-12-10T04:08:32.886Z,6.84
2018-12-10T04:09:47.483Z,6.79
2018-12-10T04:10:32.998Z,6.77
2018-12-10T04:11:47.524Z,6.73
2018-12-10T04:12:32.868Z,6.67
2018-12-10T04:13:32.891Z,6.8
2018-12-10T04:15:32.917Z,6.87
2018-12-10T04:16:32.930Z,6.73
2018-12-10T04:17:32.951Z,6.67
2018-12-10T04:18:32.964Z,6.79
2018-12-10T04:19:32.991Z,6.77
2018-12-10T04:20:33.001Z,6.77
2018-12-10T04:21:33.013Z,6.7
2018-12-10T04:22:33.031Z,6.71
2018-12-10T04:23:48.030Z,6.73
2018-12-10T04:24:47.714Z,6.76
2018-12-10T04:25:33.075Z,6.7
2018-12-10T04:26:33.084Z,6.73
2018-12-10T04:27:47.763Z,6.87
2018-12-10T04:28:33.115Z,6.87
2018-12-10T04:29:33.184Z,6.74
2018-12-10T04:30:33.165Z,6.74
2018-12-10T04:31:33.188Z,6.76
2018-12-10T04:32:33.181Z,6.74
2018-12-10T04:33:33.201Z,6.77
2018-12-10T04:34:33.225Z,6.74
2018-12-10T04:35:33.232Z,6.71
2018-12-10T04:36:33.247Z,6.74
2018-12-10T04:37:33.254Z,6.62
2018-12-10T04:38:33.274Z,6.71
2018-12-10T04:39:33.294Z,6.74
2018-12-10T04:40:33.309Z,6.7
2018-12-10T04:41:33.318Z,6.71
2018-12-10T04:42:33.335Z,6.74
2018-12-10T04:43:48.012Z,6.67
2018-12-10T04:44:33.372Z,6.67
2018-12-10T04:46:33.398Z,6.76
2018-12-10T04:47:33.422Z,6.76
2018-12-10T04:48:33.545Z,6.76
2018-12-10T04:49:33.451Z,6.71
2018-12-10T04:50:33.462Z,6.74
2018-12-10T04:51:33.476Z,6.74
2018-12-10T04:52:33.605Z,6.56
2018-12-10T04:53:48.169Z,6.67
2018-12-10T04:54:33.588Z,6.71
2018-12-10T04:55:33.542Z,6.67
2018-12-10T04:56:33.635Z,6.64
2018-12-10T04:58:48.246Z,6.62
2018-12-10T04:59:33.600Z,6.66
2018-12-10T05:00:33.723Z,6.73
2018-12-10T05:01:33.638Z,6.69
2018-12-10T05:02:33.646Z,6.71
2018-12-10T05:03:33.716Z,6.58
2018-12-10T05:04:33.675Z,6.74
2018-12-10T05:05:33.697Z,6.69
2018-12-10T05:06:33.712Z,6.7
2018-12-10T05:07:33.727Z,6.79
2018-12-10T05:08:48.401Z,6.76
2018-12-10T05:09:48.418Z,6.66
2018-12-10T05:10:33.774Z,6.64
2018-12-10T05:11:33.849Z,6.7
2018-12-10T05:12:33.803Z,6.66
2018-12-10T05:13:33.817Z,6.62
2018-12-10T05:14:33.831Z,6.66
2018-12-10T05:15:33.849Z,6.74
2018-12-10T05:16:33.962Z,6.69
2018-12-10T05:17:33.941Z,6.79
2018-12-10T05:18:33.894Z,6.67
2018-12-10T05:19:33.908Z,6.73
2018-12-10T05:20:33.925Z,6.69
2018-12-10T05:21:33.945Z,6.71
2018-12-10T05:22:33.958Z,6.76
2018-12-10T05:23:48.685Z,6.74
2018-12-10T05:24:33.986Z,6.73
2018-12-10T05:25:34.004Z,6.71
2018-12-10T05:26:48.680Z,6.64
2018-12-10T05:27:34.083Z,6.69
2018-12-10T05:28:34.050Z,6.66
2018-12-10T05:29:34.064Z,6.62
2018-12-10T05:30:48.743Z,6.61
2018-12-10T05:31:34.096Z,6.61
2018-12-10T05:32:34.110Z,6.55
2018-12-10T05:33:34.127Z,6.7
2018-12-10T05:34:34.141Z,6.76
2018-12-10T05:35:34.157Z,6.7
2018-12-10T05:36:34.176Z,6.73
2018-12-10T05:37:34.193Z,6.71
2018-12-10T05:38:34.328Z,6.79
2018-12-10T05:39:34.222Z,6.71
2018-12-10T05:40:34.243Z,6.67
2018-12-10T05:41:48.912Z,6.67
2018-12-10T05:42:34.268Z,6.58
2018-12-10T05:43:34.287Z,6.59
2018-12-10T05:44:34.302Z,6.56
2018-12-10T05:45:34.319Z,6.55
2018-12-10T05:46:48.996Z,6.61
2018-12-10T05:47:34.570Z,6.59
2018-12-10T05:48:34.359Z,6.61
2018-12-10T05:49:34.376Z,6.61
2018-12-10T05:50:34.397Z,6.54
2018-12-10T05:51:34.410Z,6.52
2018-12-10T05:52:34.426Z,6.59
2018-12-10T05:54:34.456Z,6.58
2018-12-10T05:55:34.467Z,6.55
2018-12-10T05:56:34.482Z,6.54
2018-12-10T05:57:49.160Z,6.58
2018-12-10T05:58:34.514Z,6.59
2018-12-10T05:59:49.192Z,6.58
2018-12-10T06:00:34.547Z,6.56
2018-12-10T06:01:34.560Z,6.52
2018-12-10T06:02:49.235Z,6.55
2018-12-10T06:03:34.591Z,6.59
2018-12-10T06:04:34.605Z,6.59
2018-12-10T06:05:34.737Z,6.56
2018-12-10T06:06:34.759Z,6.62
2018-12-10T06:07:34.656Z,6.62
2018-12-10T06:08:34.677Z,6.58
2018-12-10T06:09:34.687Z,6.59
2018-12-10T06:10:34.697Z,6.66
2018-12-10T06:11:34.714Z,6.64
2018-12-10T06:12:34.728Z,6.64
2018-12-10T06:13:34.749Z,6.73
2018-12-10T06:14:34.764Z,6.71
2018-12-10T06:15:34.777Z,6.71
2018-12-10T06:16:34.804Z,6.71
2018-12-10T06:17:34.808Z,6.71
2018-12-10T06:19:34.835Z,6.64
2018-12-10T06:21:34.925Z,6.73
2018-12-10T06:22:35.000Z,6.67
2018-12-10T06:23:35.006Z,6.66
2018-12-10T06:24:34.986Z,6.58
2018-12-10T06:25:34.942Z,6.62
2018-12-10T06:26:49.610Z,6.54
2018-12-10T06:27:35.014Z,6.56
2018-12-10T06:28:49.688Z,6.62
2018-12-10T06:29:34.995Z,6.58
2018-12-10T06:30:35.007Z,6.61
2018-12-10T06:31:35.022Z,6.59
2018-12-10T06:32:35.041Z,6.56
2018-12-10T06:33:49.715Z,6.59
2018-12-10T06:34:35.073Z,6.54
2018-12-10T06:35:35.175Z,6.51
2018-12-10T06:36:35.098Z,6.55
2018-12-10T06:37:42.314Z,6.44
2018-12-10T06:38:35.131Z,6.49
2018-12-10T06:39:35.197Z,6.46
2018-12-10T06:40:35.164Z,6.48
2018-12-10T06:41:35.177Z,6.48
2018-12-10T06:43:35.209Z,6.51
2018-12-10T06:44:35.222Z,6.41
2018-12-10T06:45:35.337Z,6.43
2018-12-10T06:46:35.259Z,6.4
2018-12-10T06:47:35.270Z,6.36
2018-12-10T06:48:35.333Z,6.38
2018-12-10T06:49:35.302Z,6.44
2018-12-10T06:50:35.312Z,6.38
2018-12-10T06:52:35.345Z,6.37
2018-12-10T06:53:35.421Z,6.4
2018-12-10T06:54:35.378Z,6.41
2018-12-10T06:55:50.109Z,6.46
2018-12-10T06:56:35.414Z,6.46
2018-12-10T06:57:35.423Z,6.36
2018-12-10T06:58:35.454Z,6.36
2018-12-10T06:59:35.462Z,6.3
2018-12-10T07:00:35.472Z,6.37
2018-12-10T07:01:35.490Z,6.44
2018-12-10T07:02:35.498Z,6.36
2018-12-10T07:03:35.524Z,6.33
2018-12-10T07:04:35.529Z,6.54
2018-12-10T07:05:50.207Z,6.43
2018-12-10T07:06:35.561Z,6.38
2018-12-10T07:07:35.634Z,6.34
2018-12-10T07:08:35.593Z,6.31
2018-12-10T07:09:35.655Z,6.34
2018-12-10T07:10:35.621Z,6.33
2018-12-10T07:11:35.643Z,6.31
2018-12-10T07:12:35.752Z,6.31
2018-12-10T07:13:35.669Z,6.21
2018-12-10T07:14:35.684Z,6.28
2018-12-10T07:15:35.701Z,6.31
2018-12-10T07:16:35.718Z,6.38
2018-12-10T07:17:35.734Z,6.31
2018-12-10T07:18:35.848Z,6.28
2018-12-10T07:19:35.763Z,6.21
2018-12-10T07:20:35.774Z,6.19
2018-12-10T07:21:50.458Z,6.14
2018-12-10T07:22:35.807Z,6.18
2018-12-10T07:23:35.922Z,6.22
2018-12-10T07:24:35.842Z,6.22
2018-12-10T07:25:35.618Z,6.22
2018-12-10T07:26:35.867Z,6.18
2018-12-10T07:28:37.813Z,6.27
2018-12-10T07:29:50.579Z,6.25
2018-12-10T07:30:50.673Z,6.21
2018-12-10T07:31:35.952Z,6.22
2018-12-10T07:32:35.968Z,6.31
2018-12-10T07:33:50.638Z,6.28
2018-12-10T07:34:35.990Z,6.31
2018-12-10T07:35:36.055Z,6.18
2018-12-10T07:36:36.023Z,6.14
2018-12-10T07:37:50.704Z,6.19
2018-12-10T07:38:36.052Z,6.27
2018-12-10T07:39:36.082Z,6.17
2018-12-10T07:41:36.103Z,6.27
2018-12-10T07:42:36.115Z,6.28
2018-12-10T07:43:36.129Z,6.27
2018-12-10T07:45:36.160Z,6.21
2018-12-10T07:46:36.183Z,6.25
2018-12-10T07:47:36.195Z,6.27
2018-12-10T07:48:36.204Z,6.27
2018-12-10T07:49:36.221Z,6.37
2018-12-10T07:50:36.239Z,6.3
2018-12-10T07:51:36.250Z,6.34
2018-12-10T07:52:36.267Z,6.3
2018-12-10T07:53:50.942Z,6.25
2018-12-10T07:54:36.298Z,6.28
2018-12-10T07:55:36.320Z,6.34
2018-12-10T07:57:36.398Z,6.28
2018-12-10T07:58:36.362Z,6.3
2018-12-10T07:59:36.462Z,6.3
2018-12-10T08:00:36.386Z,6.3
2018-12-10T08:01:36.405Z,6.38
2018-12-10T08:02:36.425Z,6.37
2018-12-10T08:04:36.451Z,6.4
2018-12-10T08:05:36.573Z,6.31
2018-12-10T08:06:36.486Z,6.36
2018-12-10T08:07:36.495Z,6.31
2018-12-10T08:08:52.754Z,6.31
2018-12-10T08:09:36.627Z,6.34
2018-12-10T08:10:36.550Z,6.34
2018-12-10T08:11:36.559Z,6.36
2018-12-10T08:13:36.596Z,6.4
2018-12-10T08:14:36.606Z,6.41
2018-12-10T08:15:36.622Z,6.43
2018-12-10T08:16:36.685Z,6.56
2018-12-10T08:17:36.652Z,6.37
2018-12-10T08:18:51.337Z,6.46
2018-12-10T08:19:36.683Z,6.37
2018-12-10T08:20:36.698Z,6.44
2018-12-10T08:21:36.711Z,6.44
2018-12-10T08:22:36.728Z,6.38
2018-12-10T08:23:36.967Z,6.54
2018-12-10T08:24:36.761Z,6.56
2018-12-10T08:25:36.775Z,6.54
2018-12-10T08:26:36.791Z,6.55
2018-12-10T08:27:36.806Z,6.41
2018-12-10T08:28:36.868Z,6.41
2018-12-10T08:29:51.505Z,6.49
2018-12-10T08:30:36.854Z,6.44
2018-12-10T08:31:36.959Z,6.48
2018-12-10T08:32:36.936Z,6.51
2018-12-10T08:33:36.895Z,6.58
2018-12-10T08:34:43.841Z,6.58
2018-12-10T08:35:45.598Z,6.55
2018-12-10T08:36:36.939Z,6.59
2018-12-10T08:37:36.965Z,6.58
2018-12-10T08:38:36.975Z,6.59
2018-12-10T08:39:36.994Z,6.61
2018-12-10T08:40:51.667Z,6.52
2018-12-10T08:41:37.021Z,6.55
2018-12-10T08:42:37.034Z,6.52
2018-12-10T08:43:37.055Z,6.49
2018-12-10T08:44:37.072Z,6.37
2018-12-10T08:45:37.184Z,6.44
2018-12-10T08:46:37.099Z,6.4
2018-12-10T08:47:37.117Z,6.37
2018-12-10T08:48:37.126Z,6.43
2018-12-10T08:49:37.140Z,6.44
2018-12-10T08:50:37.168Z,6.37
2018-12-10T08:51:37.278Z,6.41
2018-12-10T08:52:37.237Z,6.44
2018-12-10T08:53:37.207Z,6.38
2018-12-10T08:54:37.270Z,6.37
2018-12-10T08:55:37.235Z,6.33
2018-12-10T08:56:51.915Z,6.28
2018-12-10T08:57:37.269Z,6.33
2018-12-10T08:58:37.287Z,6.25
2018-12-10T08:59:37.311Z,6.17
2018-12-10T09:01:37.329Z,6.18
2018-12-10T09:03:37.361Z,6.21
2018-12-10T09:04:39.146Z,6.3
2018-12-10T09:05:37.401Z,6.38
2018-12-10T09:06:37.411Z,6.52
2018-12-10T09:07:37.472Z,6.51
2018-12-10T09:08:37.447Z,6.51
2018-12-10T09:09:52.164Z,6.56
2018-12-10T09:10:39.536Z,6.61
2018-12-10T09:11:37.486Z,6.61
2018-12-10T09:12:52.161Z,6.77
2018-12-10T09:13:37.527Z,6.71
2018-12-10T09:14:37.540Z,6.66
2018-12-10T09:15:37.547Z,6.69
2018-12-10T09:16:37.563Z,6.76
2018-12-10T09:17:37.585Z,6.91
2018-12-10T09:18:37.596Z,7.02
2018-12-10T09:19:37.612Z,6.97
2018-12-10T09:20:37.628Z,6.85
2018-12-10T09:21:37.646Z,6.76
2018-12-10T09:22:37.659Z,6.7
2018-12-10T09:23:37.677Z,6.7
2018-12-10T09:24:37.693Z,6.77
2018-12-10T09:25:37.706Z,6.77
2018-12-10T09:26:37.729Z,6.7
2018-12-10T09:27:37.735Z,6.73
2018-12-10T09:28:52.417Z,6.67
2018-12-10T09:29:38.080Z,6.69
2018-12-10T09:30:37.785Z,6.92
2018-12-10T09:31:37.799Z,6.85
2018-12-10T09:32:37.815Z,6.97
2018-12-10T09:33:37.844Z,6.84
2018-12-10T09:34:37.853Z,6.81
2018-12-10T09:35:37.872Z,6.85
2018-12-10T09:36:37.879Z,6.8
2018-12-10T09:37:37.902Z,6.92
2018-12-10T09:38:37.910Z,6.89
2018-12-10T09:39:37.927Z,6.91
2018-12-10T09:40:37.942Z,6.8
2018-12-10T09:41:37.962Z,6.8
2018-12-10T09:42:38.030Z,6.79
2018-12-10T09:43:52.653Z,6.76
2018-12-10T09:44:38.017Z,6.81
2018-12-10T09:45:38.023Z,6.95
2018-12-10T09:47:38.059Z,6.91
2018-12-10T09:48:38.170Z,6.95
2018-12-10T09:49:38.085Z,6.79
2018-12-10T09:50:38.098Z,6.84
2018-12-10T09:51:38.131Z,6.92
2018-12-10T09:52:38.133Z,6.76
2018-12-10T09:53:38.153Z,6.76
2018-12-10T09:54:52.826Z,6.84
2018-12-10T09:56:38.198Z,6.91
2018-12-10T09:57:38.210Z,6.97
2018-12-10T09:58:38.280Z,6.81
2018-12-10T09:59:38.248Z,6.98
2018-12-10T10:00:38.263Z,6.95
2018-12-10T10:01:38.276Z,6.98
2018-12-10T10:02:38.396Z,6.84
2018-12-10T10:03:38.311Z,6.87
2018-12-10T10:04:38.329Z,6.73
2018-12-10T10:05:38.355Z,6.85
2018-12-10T10:06:38.355Z,6.92
2018-12-10T10:07:53.038Z,6.84
2018-12-10T10:08:38.391Z,6.74
2018-12-10T10:09:53.067Z,6.88
2018-12-10T10:10:38.424Z,7.07
2018-12-10T10:11:38.438Z,7.09
2018-12-10T10:12:38.463Z,6.92
2018-12-10T10:14:38.488Z,6.89
2018-12-10T10:15:53.163Z,6.94
2018-12-10T10:16:38.564Z,6.95
2018-12-10T10:17:38.683Z,7.03
2018-12-10T10:18:38.550Z,7.17
2018-12-10T10:19:38.571Z,7.16
2018-12-10T10:20:38.608Z,7.23
2018-12-10T10:22:38.611Z,7.4
2018-12-10T10:23:38.626Z,7.31
2018-12-10T10:24:38.649Z,7.28
2018-12-10T10:25:38.659Z,7.27
2018-12-10T10:26:38.737Z,7.16
2018-12-10T10:27:38.698Z,7.09
2018-12-10T10:28:38.710Z,7.1
2018-12-10T10:29:38.727Z,7.13
2018-12-10T10:30:43.750Z,7.21
2018-12-10T10:31:53.421Z,7.23
2018-12-10T10:33:38.789Z,7.25
2018-12-10T10:34:38.877Z,7.34
2018-12-10T10:36:38.835Z,7.28
2018-12-10T10:37:38.865Z,7.07
2018-12-10T10:38:38.872Z,7.16
2018-12-10T10:39:38.885Z,7.15
2018-12-10T10:40:38.906Z,7.09
2018-12-10T10:41:38.919Z,7.12
2018-12-10T10:42:38.937Z,7.3
2018-12-10T10:43:38.950Z,7.25
2018-12-10T10:44:39.019Z,7.25
2018-12-10T10:45:39.883Z,7.35
2018-12-10T10:46:39.075Z,7.35
2018-12-10T10:47:53.676Z,7.34
2018-12-10T10:48:39.058Z,7.37
2018-12-10T10:49:39.104Z,7.39
2018-12-10T10:50:39.060Z,7.43
2018-12-10T10:52:39.106Z,7.57
2018-12-10T10:53:39.114Z,7.61
2018-12-10T10:54:53.792Z,7.57
2018-12-10T10:55:39.142Z,7.64
2018-12-10T10:56:39.159Z,7.63
2018-12-10T10:57:53.937Z,7.6
2018-12-10T10:58:53.854Z,7.5
2018-12-10T10:59:39.211Z,7.55
2018-12-10T11:00:39.287Z,7.46
2018-12-10T11:01:53.949Z,7.45
2018-12-10T11:02:39.254Z,7.55
2018-12-10T11:03:53.948Z,7.53
2018-12-10T11:04:42.646Z,7.46
2018-12-10T11:05:39.304Z,7.6
2018-12-10T11:06:39.325Z,7.67
2018-12-10T11:07:39.337Z,7.63
2018-12-10T11:08:54.022Z,7.6
2018-12-10T11:09:39.371Z,7.45
2018-12-10T11:10:39.393Z,7.34
2018-12-10T11:11:39.404Z,7.31
2018-12-10T11:12:39.424Z,7.31
2018-12-10T11:13:39.543Z,7.35
2018-12-10T11:14:39.451Z,7.25
2018-12-10T11:15:39.469Z,7.21
2018-12-10T11:16:39.485Z,7.23
2018-12-10T11:17:39.500Z,7.2
2018-12-10T11:18:54.178Z,7.35
2018-12-10T11:19:39.535Z,7.43
2018-12-10T11:20:39.546Z,7.4
2018-12-10T11:21:39.568Z,7.34
2018-12-10T11:22:40.452Z,7.4
2018-12-10T11:23:39.599Z,7.46
2018-12-10T11:24:39.618Z,7.37
2018-12-10T11:25:39.631Z,7.32
2018-12-10T11:26:39.646Z,7.39
2018-12-10T11:27:39.662Z,7.31
2018-12-10T11:29:39.695Z,7.37
2018-12-10T11:30:39.763Z,7.42
2018-12-10T11:31:39.726Z,7.48
2018-12-10T11:32:39.746Z,7.43
2018-12-10T11:33:39.760Z,7.48
2018-12-10T11:34:39.773Z,7.43
2018-12-10T11:35:39.793Z,7.28
2018-12-10T11:36:39.862Z,7.28
2018-12-10T11:37:39.823Z,7.24
2018-12-10T11:38:39.848Z,7.4
2018-12-10T11:40:39.875Z,7.35
2018-12-10T11:41:39.894Z,7.23
2018-12-10T11:42:39.904Z,7.24
2018-12-10T11:43:39.977Z,7.09
2018-12-10T11:44:39.986Z,7.15
2018-12-10T11:45:39.952Z,7.13
2018-12-10T11:46:39.972Z,7.1
2018-12-10T11:47:39.983Z,7.12
2018-12-10T11:48:40.003Z,7.15
2018-12-10T11:49:40.016Z,7.13
2018-12-10T11:50:54.691Z,7.12
2018-12-10T11:51:40.046Z,7.21
2018-12-10T11:52:40.068Z,7.1
2018-12-10T11:53:39.831Z,7.23
2018-12-10T11:55:40.110Z,7.12
2018-12-10T11:56:40.129Z,7.15
2018-12-10T11:57:40.145Z,7.13
2018-12-10T11:58:40.163Z,7.13
2018-12-10T11:59:40.174Z,7.13
2018-12-10T12:00:54.855Z,7.15
2018-12-10T12:01:40.211Z,7.1
2018-12-10T12:02:40.242Z,7.09
2018-12-10T12:03:40.242Z,7.06
2018-12-10T12:04:40.256Z,7.09
2018-12-10T12:05:42.084Z,7.05
2018-12-10T12:06:54.948Z,7.1
2018-12-10T12:07:40.307Z,7.06
2018-12-10T12:08:40.318Z,7.02
2018-12-10T12:09:40.332Z,7.07
2018-12-10T12:10:40.348Z,7.07
2018-12-10T12:12:40.189Z,6.94
2018-12-10T12:13:40.400Z,6.89
2018-12-10T12:14:40.419Z,6.94
2018-12-10T12:15:40.428Z,6.98
2018-12-10T12:16:40.448Z,6.91
2018-12-10T12:17:40.467Z,6.95
2018-12-10T12:18:40.536Z,6.99
2018-12-10T12:21:40.576Z,6.92
2018-12-10T12:22:55.210Z,6.84
2018-12-10T12:23:40.608Z,6.85
2018-12-10T12:24:40.578Z,6.92
2018-12-10T12:25:40.593Z,6.95
2018-12-10T12:26:40.603Z,6.89
2018-12-10T12:27:40.618Z,6.94
2018-12-10T12:28:40.635Z,7.05
2018-12-10T12:29:40.649Z,6.94
2018-12-10T12:31:40.678Z,7.06
2018-12-10T12:32:40.755Z,7.17
2018-12-10T12:33:40.814Z,7.1
2018-12-10T12:34:40.733Z,7.1
2018-12-10T12:35:40.744Z,7.06
2018-12-10T12:36:40.789Z,7.09
2018-12-10T12:37:40.777Z,6.98
2018-12-10T12:38:55.453Z,6.97
2018-12-10T12:39:40.808Z,7.12
2018-12-10T12:40:40.832Z,7.09
2018-12-10T12:41:40.852Z,7.09
2018-12-10T12:42:40.905Z,6.94
2018-12-10T12:43:40.869Z,6.91
2018-12-10T12:44:40.886Z,6.99
2018-12-10T12:46:40.919Z,6.99
2018-12-10T12:47:40.935Z,6.94
2018-12-10T12:48:40.950Z,6.97
2018-12-10T12:50:40.986Z,7.06
2018-12-10T12:51:56.642Z,6.91
2018-12-10T12:52:41.067Z,6.97
2018-12-10T12:53:55.797Z,6.91
2018-12-10T12:54:41.014Z,6.95
2018-12-10T12:55:41.064Z,6.99
2018-12-10T12:56:41.078Z,7.09
2018-12-10T12:57:41.143Z,6.97
2018-12-10T12:58:41.113Z,6.99
2018-12-10T12:59:41.122Z,7.05
2018-12-10T13:00:46.762Z,7.12
2018-12-10T13:01:48.928Z,7.06
2018-12-10T13:02:41.176Z,7.05
2018-12-10T13:03:41.202Z,6.99
2018-12-10T13:04:41.311Z,6.95
2018-12-10T13:05:41.219Z,6.92
2018-12-10T13:06:41.245Z,6.85
2018-12-10T13:07:41.247Z,6.76
2018-12-10T13:08:41.274Z,6.77
2018-12-10T13:09:41.389Z,6.76
2018-12-10T13:10:41.398Z,6.56
2018-12-10T13:11:56.674Z,6.36
2018-12-10T13:12:41.331Z,6.34
2018-12-10T13:13:41.600Z,6.27
2018-12-10T13:15:41.379Z,6.17
2018-12-10T13:16:49.195Z,6.08
2018-12-10T13:17:41.408Z,6
2018-12-10T13:18:41.423Z,5.99
2018-12-10T13:19:41.439Z,6.03
2018-12-10T13:20:41.466Z,5.97
2018-12-10T13:21:41.477Z,6.08
2018-12-10T13:22:49.681Z,6.09
2018-12-10T13:23:41.506Z,6.06
2018-12-10T13:24:41.522Z,6.15
2018-12-10T13:25:56.193Z,6.06
2018-12-10T13:26:41.593Z,6.11
2018-12-10T13:27:41.573Z,6.11
2018-12-10T13:28:41.734Z,6.06
2018-12-10T13:29:41.613Z,6.25
2018-12-10T13:30:41.895Z,6.33
2018-12-10T13:31:41.824Z,6.18
2018-12-10T13:32:41.641Z,6.17
2018-12-10T13:33:41.658Z,6.34
2018-12-10T13:34:41.677Z,6.25
2018-12-10T13:35:41.704Z,6.38
2018-12-10T13:36:41.792Z,6.48
2018-12-10T13:37:45.648Z,6.41
2018-12-10T13:38:41.842Z,6.49
2018-12-10T13:39:41.755Z,6.4
2018-12-10T13:40:41.769Z,6.46
2018-12-10T13:42:41.797Z,6.49
2018-12-10T13:43:41.812Z,6.41
2018-12-10T13:44:41.830Z,6.55
2018-12-10T13:45:41.849Z,6.56
2018-12-10T13:46:41.869Z,6.58
2018-12-10T13:47:41.932Z,6.62
2018-12-10T13:48:41.894Z,6.56
2018-12-10T13:49:41.916Z,6.56
2018-12-10T13:50:41.970Z,6.61
2018-12-10T13:51:41.946Z,6.79
2018-12-10T13:52:56.990Z,6.74
2018-12-10T13:53:42.021Z,6.69
2018-12-10T13:54:41.983Z,6.71
2018-12-10T13:55:42.000Z,6.73
2018-12-10T13:56:42.017Z,6.73
2018-12-10T13:57:56.690Z,6.62
2018-12-10T13:58:42.050Z,6.67
2018-12-10T13:59:42.118Z,6.62
2018-12-10T14:00:42.080Z,6.61
2018-12-10T14:01:42.092Z,6.55
2018-12-10T14:02:42.112Z,6.59
2018-12-10T14:03:42.127Z,6.56
2018-12-10T14:04:42.183Z,6.66
2018-12-10T14:05:47.433Z,6.73
2018-12-10T14:06:56.835Z,6.67
2018-12-10T14:07:42.190Z,6.76
2018-12-10T14:08:42.199Z,6.61
2018-12-10T14:09:42.217Z,6.67
2018-12-10T14:10:42.233Z,6.64
2018-12-10T14:11:42.250Z,6.74
2018-12-10T14:12:42.265Z,6.74
2018-12-10T14:13:56.941Z,6.69